createdAt,value
2018-11-04T00:00:22.674Z,22.87
2018-11-04T00:02:51.960Z,23.73
2018-11-04T00:05:21.286Z,23.03
2018-11-04T00:07:51.533Z,21.97
2018-11-04T00:10:20.692Z,22.90
2018-11-04T00:12:49.818Z,24.17
2018-11-04T00:15:18.979Z,24.00
2018-11-04T00:17:48.425Z,25.77
2018-11-04T00:20:17.533Z,26.37
2018-11-04T00:22:47.228Z,27.27
2018-11-04T00:25:16.559Z,28.97
2018-11-04T00:27:45.700Z,29.37
2018-11-04T00:30:15.690Z,28.73
2018-11-04T00:32:45.120Z,27.53
2018-11-04T00:35:14.233Z,28.00
2018-11-04T00:37:43.344Z,27.77
2018-11-04T00:40:12.408Z,27.50
2018-11-04T00:42:41.602Z,28.53
2018-11-04T00:45:10.956Z,28.17
2018-11-04T00:47:40.817Z,27.93
2018-11-04T00:50:12.656Z,25.00
2018-11-04T00:52:42.308Z,30.27
2018-11-04T00:55:12.099Z,33.53
2018-11-04T00:57:41.631Z,31.00
2018-11-04T01:00:13.065Z,30.70
2018-11-04T01:02:42.721Z,29.77
2018-11-04T01:05:11.915Z,31.63
2018-11-04T01:07:41.485Z,29.13
2018-11-04T01:10:11.514Z,29.80
2018-11-04T01:12:41.337Z,29.37
2018-11-04T01:15:11.835Z,29.83
2018-11-04T01:17:42.099Z,30.63
2018-11-04T01:20:15.957Z,29.47
2018-11-04T01:22:45.618Z,28.93
2018-11-04T01:25:14.732Z,29.50
2018-11-04T01:27:43.865Z,28.30
2018-11-04T01:30:14.630Z,28.23
2018-11-04T01:32:44.352Z,28.23
2018-11-04T01:35:13.462Z,29.37
2018-11-04T01:37:43.124Z,27.97
2018-11-04T01:40:12.364Z,27.63
2018-11-04T01:42:41.558Z,27.63
2018-11-04T01:45:11.408Z,28.67
2018-11-04T01:47:41.325Z,27.13
2018-11-04T01:50:12.696Z,29.73
2018-11-04T01:52:41.831Z,27.50
2018-11-04T01:55:11.886Z,30.80
2018-11-04T01:57:41.041Z,31.23
2018-11-04T02:00:13.727Z,31.03
2018-11-04T02:02:43.663Z,27.90
2018-11-04T02:05:13.415Z,28.70
2018-11-04T02:07:42.706Z,28.73
2018-11-04T02:10:14.090Z,29.23
2018-11-04T02:12:43.202Z,28.03
2018-11-04T02:15:13.410Z,24.73
2018-11-04T02:17:42.771Z,25.50
2018-11-04T02:20:12.942Z,26.47
2018-11-04T02:22:42.268Z,28.33
2018-11-04T02:25:12.712Z,31.47
2018-11-04T02:27:42.669Z,32.37
2018-11-04T02:30:13.366Z,33.53
2018-11-04T02:32:43.851Z,33.77
2018-11-04T02:35:13.952Z,33.83
2018-11-04T02:37:43.104Z,34.83
2018-11-04T02:40:12.630Z,33.00
2018-11-04T02:42:42.099Z,34.17
2018-11-04T02:45:11.621Z,32.57
2018-11-04T02:47:41.699Z,32.70
2018-11-04T02:50:11.178Z,33.70
2018-11-04T02:52:41.129Z,33.03
2018-11-04T02:55:10.522Z,31.70
2018-11-04T02:57:41.436Z,32.87
2018-11-04T03:00:12.871Z,34.10
2018-11-04T03:02:42.604Z,33.50
2018-11-04T03:05:12.245Z,34.20
2018-11-04T03:07:42.150Z,34.27
2018-11-04T03:10:12.940Z,33.97
2018-11-04T03:12:42.053Z,35.23
2018-11-04T03:15:11.327Z,34.13
2018-11-04T03:17:42.089Z,34.73
2018-11-04T03:20:11.241Z,35.43
2018-11-04T03:22:40.921Z,35.77
2018-11-04T03:25:10.174Z,35.33
2018-11-04T03:27:39.961Z,35.33
2018-11-04T03:30:09.753Z,34.37
2018-11-04T03:32:39.489Z,36.27
2018-11-04T03:35:08.593Z,33.73
2018-11-04T03:37:38.469Z,35.37
2018-11-04T03:40:09.309Z,35.17
2018-11-04T03:42:38.886Z,34.67
2018-11-04T03:45:08.691Z,35.47
2018-11-04T03:47:37.997Z,32.60
2018-11-04T03:50:09.045Z,32.23
2018-11-04T03:52:38.523Z,32.10
2018-11-04T03:55:08.083Z,33.70
2018-11-04T03:57:37.604Z,33.27
2018-11-04T04:00:10.577Z,34.47
2018-11-04T04:02:41.079Z,32.23
2018-11-04T04:05:11.157Z,33.37
2018-11-04T04:07:40.856Z,32.83
2018-11-04T04:10:10.627Z,32.97
2018-11-04T04:12:40.460Z,30.10
2018-11-04T04:15:10.575Z,32.20
2018-11-04T04:17:40.691Z,30.87
2018-11-04T04:20:10.181Z,32.60
2018-11-04T04:22:39.438Z,31.93
2018-11-04T04:25:09.345Z,31.90
2018-11-04T04:27:39.374Z,32.80
2018-11-04T04:30:10.336Z,31.97
2018-11-04T04:32:39.969Z,31.50
2018-11-04T04:35:10.010Z,32.20
2018-11-04T04:37:40.038Z,32.13
2018-11-04T04:40:09.547Z,30.90
2018-11-04T04:42:39.856Z,32.40
2018-11-04T04:45:09.002Z,32.23
2018-11-04T04:47:38.319Z,32.40
2018-11-04T04:50:07.711Z,33.37
2018-11-04T04:52:37.101Z,31.10
2018-11-04T04:55:06.948Z,32.57
2018-11-04T04:57:36.074Z,31.37
2018-11-04T05:00:06.205Z,30.83
2018-11-04T05:02:35.344Z,32.00
2018-11-04T05:05:04.917Z,32.70
2018-11-04T05:07:34.571Z,34.23
2018-11-04T05:10:04.060Z,32.33
2018-11-04T05:12:33.206Z,31.37
2018-11-04T05:15:02.333Z,31.17
2018-11-04T05:17:31.501Z,30.77
2018-11-04T05:20:00.615Z,29.67
2018-11-04T05:22:29.872Z,31.03
2018-11-04T05:24:58.994Z,29.70
2018-11-04T05:27:28.523Z,29.93
2018-11-04T05:32:36.852Z,30.97
2018-11-04T05:35:07.449Z,30.67
2018-11-04T05:37:37.365Z,29.70
2018-11-04T05:40:07.132Z,31.40
2018-11-04T05:42:36.469Z,31.27
2018-11-04T05:45:06.757Z,30.97
2018-11-04T05:47:36.065Z,31.00
2018-11-04T05:50:06.078Z,31.50
2018-11-04T05:52:35.916Z,32.73
2018-11-04T05:55:06.195Z,31.07
2018-11-04T05:57:35.305Z,32.37
2018-11-04T06:00:05.312Z,31.90
2018-11-04T06:02:34.567Z,32.30
2018-11-04T06:05:04.048Z,32.97
2018-11-04T06:07:33.158Z,31.80
2018-11-04T06:10:02.358Z,30.37
2018-11-04T06:12:31.642Z,30.30
2018-11-04T06:15:00.771Z,30.97
2018-11-04T06:17:29.882Z,34.87
2018-11-04T06:19:59.005Z,33.90
2018-11-04T06:22:28.200Z,33.03
2018-11-04T06:24:57.294Z,33.63
2018-11-04T06:27:26.884Z,35.97
2018-11-04T06:29:56.319Z,34.00
2018-11-04T06:32:25.372Z,36.13
2018-11-04T06:34:54.570Z,35.73
2018-11-04T06:37:24.355Z,36.90
2018-11-04T06:39:53.553Z,38.37
2018-11-04T06:42:22.718Z,36.30
2018-11-04T06:44:51.791Z,36.40
2018-11-04T06:47:20.880Z,37.87
2018-11-04T06:49:50.001Z,35.07
2018-11-04T06:52:19.096Z,36.13
2018-11-04T06:54:48.465Z,32.47
2018-11-04T06:57:17.525Z,31.10
2018-11-04T06:59:46.671Z,31.20
2018-11-04T07:02:15.732Z,30.73
2018-11-04T07:04:44.937Z,29.77
2018-11-04T07:07:14.244Z,30.57
2018-11-04T07:09:43.389Z,28.67
2018-11-04T07:12:12.550Z,34.80
2018-11-04T07:14:42.400Z,33.03
2018-11-04T07:17:11.492Z,32.10
2018-11-04T07:19:41.293Z,30.17
2018-11-04T07:22:10.781Z,33.33
2018-11-04T07:24:40.269Z,32.00
2018-11-04T07:27:09.455Z,30.83
2018-11-04T07:29:38.999Z,33.00
2018-11-04T07:32:08.765Z,30.87
2018-11-04T07:34:42.306Z,28.90
2018-11-04T07:37:12.601Z,28.37
2018-11-04T07:39:42.895Z,29.27
2018-11-04T07:42:12.277Z,29.87
2018-11-04T07:44:42.755Z,28.40
2018-11-04T07:47:12.608Z,28.33
2018-11-04T07:49:43.342Z,29.00
2018-11-04T07:52:12.578Z,28.30
2018-11-04T07:54:42.159Z,28.57
2018-11-04T07:57:11.607Z,29.20
2018-11-04T07:59:41.607Z,29.23
2018-11-04T08:02:11.378Z,29.00
2018-11-04T08:04:40.874Z,29.93
2018-11-04T08:07:11.191Z,29.00
2018-11-04T08:09:41.551Z,28.73
2018-11-04T08:12:11.473Z,29.97
2018-11-04T08:14:41.956Z,29.60
2018-11-04T08:17:12.955Z,28.87
2018-11-04T08:19:43.122Z,28.60
2018-11-04T08:22:12.917Z,29.53
2018-11-04T08:24:42.098Z,29.40
2018-11-04T08:27:11.285Z,28.40
2018-11-04T08:29:42.542Z,28.70
2018-11-04T08:32:12.235Z,28.47
2018-11-04T08:34:41.599Z,28.83
2018-11-04T08:37:10.761Z,28.73
2018-11-04T08:39:40.416Z,30.43
2018-11-04T08:42:09.599Z,28.53
2018-11-04T08:44:38.870Z,29.73
2018-11-04T08:47:08.163Z,28.37
2018-11-04T08:49:37.508Z,28.40
2018-11-04T08:52:06.871Z,29.23
2018-11-04T08:54:36.054Z,27.37
2018-11-04T08:57:05.281Z,27.73
2018-11-04T08:59:35.069Z,28.43
2018-11-04T09:02:04.303Z,28.83
2018-11-04T09:04:33.970Z,29.00
2018-11-04T09:07:05.142Z,27.90
2018-11-04T09:09:34.770Z,28.20
2018-11-04T09:12:04.186Z,27.87
2018-11-04T09:14:33.482Z,29.73
2018-11-04T09:17:02.530Z,27.23
2018-11-04T09:19:33.821Z,28.53
2018-11-04T09:22:08.139Z,27.50
2018-11-04T09:24:39.670Z,29.03
2018-11-04T09:27:12.426Z,26.47
2018-11-04T09:29:43.168Z,28.03
2018-11-04T09:32:14.051Z,27.47
2018-11-04T09:34:45.419Z,28.57
2018-11-04T09:37:22.605Z,28.00
2018-11-04T09:39:53.687Z,26.40
2018-11-04T09:42:25.447Z,27.40
2018-11-04T09:44:58.224Z,26.67
2018-11-04T09:47:30.638Z,27.57
2018-11-04T09:50:02.228Z,25.17
2018-11-04T09:52:35.019Z,27.70
2018-11-04T09:55:07.456Z,25.50
2018-11-04T09:57:39.339Z,26.87
2018-11-04T10:00:12.314Z,26.00
2018-11-04T10:02:43.942Z,25.43
2018-11-04T10:05:15.098Z,26.23
2018-11-04T10:07:46.205Z,25.57
2018-11-04T10:10:18.249Z,25.67
2018-11-04T10:12:49.753Z,26.47
2018-11-04T10:15:20.539Z,25.87
2018-11-04T10:17:50.130Z,25.80
2018-11-04T10:20:19.610Z,26.63
2018-11-04T10:22:48.637Z,24.50
2018-11-04T10:25:17.904Z,24.00
2018-11-04T10:27:47.699Z,25.87
2018-11-04T10:30:17.592Z,24.10
2018-11-04T10:32:48.121Z,23.90
2018-11-04T10:35:18.014Z,24.80
2018-11-04T10:37:47.402Z,25.33
2018-11-04T10:40:17.134Z,22.93
2018-11-04T10:42:46.263Z,24.33
2018-11-04T10:45:15.403Z,24.63
2018-11-04T10:47:44.512Z,22.27
2018-11-04T10:50:13.929Z,22.97
2018-11-04T10:52:43.292Z,23.20
2018-11-04T10:55:12.525Z,23.40
2018-11-04T10:57:41.685Z,24.00
2018-11-04T11:00:16.209Z,21.90
2018-11-04T11:02:45.861Z,23.33
2018-11-04T11:05:15.288Z,21.40
2018-11-04T11:07:44.624Z,22.50
2018-11-04T11:10:13.812Z,22.23
2018-11-04T11:12:43.032Z,22.23
2018-11-04T11:15:12.279Z,22.70
2018-11-04T11:17:41.387Z,22.23
2018-11-04T11:20:12.308Z,21.37
2018-11-04T11:22:41.908Z,21.57
2018-11-04T11:25:11.439Z,22.47
2018-11-04T11:27:41.631Z,23.97
2018-11-04T11:30:10.781Z,22.73
2018-11-04T11:32:40.987Z,22.13
2018-11-04T11:35:10.192Z,22.13
2018-11-04T11:37:40.753Z,23.50
2018-11-04T11:40:10.510Z,21.70
2018-11-04T11:42:40.119Z,23.57
2018-11-04T11:45:09.850Z,23.40
2018-11-04T11:47:39.616Z,23.17
2018-11-04T11:50:09.078Z,25.40
2018-11-04T11:52:39.885Z,30.73
2018-11-04T11:55:09.131Z,26.67
2018-11-04T11:57:38.539Z,27.77
2018-11-04T12:00:08.999Z,24.90
2018-11-04T12:02:39.735Z,21.23
2018-11-04T12:05:09.066Z,21.30
2018-11-04T12:07:38.891Z,20.60
2018-11-04T12:10:11.553Z,21.00
2018-11-04T12:12:40.713Z,19.50
2018-11-04T12:15:11.264Z,19.00
2018-11-04T12:17:41.206Z,18.50
2018-11-04T12:20:11.484Z,19.23
2018-11-04T12:22:40.992Z,19.40
2018-11-04T12:25:11.437Z,18.30
2018-11-04T12:27:41.111Z,19.63
2018-11-04T12:30:12.745Z,20.20
2018-11-04T12:32:41.877Z,19.60
2018-11-04T12:35:12.450Z,19.60
2018-11-04T12:37:42.643Z,18.37
2018-11-04T12:40:13.000Z,18.57
2018-11-04T12:42:42.883Z,19.23
2018-11-04T12:45:12.956Z,18.63
2018-11-04T12:47:42.531Z,19.00
2018-11-04T12:50:12.502Z,18.50
2018-11-04T12:52:41.979Z,35.00
2018-11-04T12:55:11.286Z,27.73
2018-11-04T12:57:41.404Z,19.23
2018-11-04T13:00:14.192Z,18.83
2018-11-04T13:02:44.398Z,18.17
2018-11-04T13:05:13.724Z,17.60
2018-11-04T13:07:43.306Z,18.27
2018-11-04T13:10:13.720Z,17.27
2018-11-04T13:12:43.439Z,18.17
2018-11-04T13:15:14.096Z,16.17
2018-11-04T13:17:43.499Z,17.13
2018-11-04T13:20:12.846Z,17.53
2018-11-04T13:22:42.012Z,18.10
2018-11-04T13:25:11.374Z,18.47
2018-11-04T13:27:40.754Z,18.67
2018-11-04T13:30:11.329Z,18.40
2018-11-04T13:32:40.813Z,17.17
2018-11-04T13:35:09.953Z,17.37
2018-11-04T13:37:39.701Z,17.47
2018-11-04T13:40:10.319Z,18.27
2018-11-04T13:42:40.141Z,18.00
2018-11-04T13:45:10.044Z,17.07
2018-11-04T13:47:39.446Z,18.10
2018-11-04T13:50:10.258Z,18.10
2018-11-04T13:52:39.947Z,18.17
2018-11-04T13:55:09.199Z,16.87
2018-11-04T13:57:38.926Z,16.10
2018-11-04T14:00:10.172Z,15.73
2018-11-04T14:02:39.656Z,16.70
2018-11-04T14:05:09.596Z,16.43
2018-11-04T14:07:39.049Z,16.33
2018-11-04T14:10:09.095Z,15.83
2018-11-04T14:12:38.866Z,14.93
2018-11-04T14:15:08.007Z,14.50
2018-11-04T14:17:37.081Z,14.23
2018-11-04T14:20:08.507Z,14.80
2018-11-04T14:22:37.820Z,15.13
2018-11-04T14:25:07.648Z,15.07
2018-11-04T14:27:36.923Z,15.67
2018-11-04T14:30:08.864Z,15.37
2018-11-04T14:32:37.991Z,15.40
2018-11-04T14:35:08.020Z,14.57
2018-11-04T14:37:37.557Z,14.30
2018-11-04T14:40:08.003Z,13.50
2018-11-04T14:42:37.244Z,13.43
2018-11-04T14:45:07.228Z,14.53
2018-11-04T14:47:36.668Z,15.13
2018-11-04T14:50:08.452Z,14.67
2018-11-04T14:52:37.786Z,14.10
2018-11-04T14:55:07.439Z,14.63
2018-11-04T14:57:37.243Z,13.27
2018-11-04T15:00:09.398Z,14.40
2018-11-04T15:02:38.782Z,14.40
2018-11-04T15:05:08.578Z,13.40
2018-11-04T15:07:38.548Z,12.07
2018-11-04T15:10:09.635Z,12.23
2018-11-04T15:12:39.090Z,10.57
2018-11-04T15:15:10.628Z,10.83
2018-11-04T15:17:40.484Z,9.80
2018-11-04T15:20:10.597Z,9.80
2018-11-04T15:22:45.248Z,9.83
2018-11-04T15:25:15.167Z,11.20
2018-11-04T15:27:44.382Z,10.57
2018-11-04T15:30:13.688Z,10.03
2018-11-04T15:32:43.178Z,9.33
2018-11-04T15:35:13.130Z,8.97
2018-11-04T15:37:42.331Z,8.60
2018-11-04T15:40:13.028Z,8.47
2018-11-04T15:42:42.251Z,9.37
2018-11-04T15:45:12.551Z,8.90
2018-11-04T15:47:41.971Z,8.77
2018-11-04T15:50:14.182Z,9.47
2018-11-04T15:52:44.817Z,9.10
2018-11-04T15:55:14.298Z,9.90
2018-11-04T15:57:43.980Z,10.40
2018-11-04T16:00:14.467Z,10.70
2018-11-04T16:02:43.692Z,12.03
2018-11-04T16:05:13.302Z,11.97
2018-11-04T16:07:42.422Z,10.47
2018-11-04T16:10:12.685Z,10.97
2018-11-04T16:12:41.818Z,10.30
2018-11-04T16:15:13.153Z,9.70
2018-11-04T16:17:43.303Z,9.47
2018-11-04T16:20:13.998Z,9.77
2018-11-04T16:22:43.780Z,10.43
2018-11-04T16:25:13.357Z,9.43
2018-11-04T16:27:43.031Z,10.03
2018-11-04T16:30:13.476Z,9.40
2018-11-04T16:32:43.182Z,9.93
2018-11-04T16:35:13.160Z,9.93
2018-11-04T16:37:43.207Z,9.80
2018-11-04T16:40:12.386Z,19.77
2018-11-04T16:42:41.708Z,12.20
2018-11-04T16:45:13.651Z,11.97
2018-11-04T16:47:45.352Z,11.63
2018-11-04T16:50:16.533Z,11.17
2018-11-04T16:52:49.440Z,10.80
2018-11-04T16:55:20.671Z,10.07
2018-11-04T16:57:53.123Z,11.43
2018-11-04T17:00:23.878Z,12.13
2018-11-04T17:02:55.705Z,20.93
2018-11-04T17:05:25.185Z,19.93
2018-11-04T17:07:54.344Z,19.10
2018-11-04T17:10:23.608Z,17.40
2018-11-04T17:12:53.021Z,14.60
2018-11-04T17:15:22.332Z,13.70
2018-11-04T17:17:51.859Z,11.87
2018-11-04T17:20:20.991Z,10.73
2018-11-04T17:22:50.504Z,10.03
2018-11-04T17:25:19.677Z,10.77
2018-11-04T17:27:48.843Z,12.37
2018-11-04T17:30:18.872Z,11.57
2018-11-04T17:32:48.879Z,12.30
2018-11-04T17:35:19.518Z,12.23
2018-11-04T17:37:49.059Z,12.17
2018-11-04T17:40:18.568Z,11.20
2018-11-04T17:42:48.363Z,11.30
2018-11-04T17:45:18.364Z,10.90
2018-11-04T17:47:48.531Z,11.30
2018-11-04T17:50:18.977Z,12.07
2018-11-04T17:52:51.371Z,10.90
2018-11-04T17:55:20.898Z,12.40
2018-11-04T17:57:50.402Z,11.60
2018-11-04T18:00:19.913Z,13.20
2018-11-04T18:02:49.534Z,11.87
2018-11-04T18:05:18.811Z,12.00
2018-11-04T18:07:48.415Z,12.00
2018-11-04T18:10:17.625Z,11.53
2018-11-04T18:12:46.865Z,18.30
2018-11-04T18:15:16.446Z,13.40
2018-11-04T18:17:46.556Z,13.83
2018-11-04T18:20:15.767Z,12.70
2018-11-04T18:22:45.002Z,13.17
2018-11-04T18:25:15.092Z,12.40
2018-11-04T18:27:44.189Z,11.27
2018-11-04T18:30:14.871Z,12.27
2018-11-04T18:32:44.360Z,11.77
2018-11-04T18:35:13.643Z,14.83
2018-11-04T18:37:43.192Z,14.93
2018-11-04T18:40:13.876Z,16.70
2018-11-04T18:42:44.335Z,13.80
2018-11-04T18:45:15.189Z,13.10
2018-11-04T18:47:44.662Z,12.33
2018-11-04T18:50:14.721Z,12.83
2018-11-04T18:52:44.067Z,13.27
2018-11-04T18:55:13.428Z,11.83
2018-11-04T18:57:43.678Z,12.13
2018-11-04T19:00:15.523Z,12.13
2018-11-04T19:02:45.434Z,11.53
2018-11-04T19:05:14.627Z,12.30
2018-11-04T19:07:43.923Z,12.83
2018-11-04T19:10:15.762Z,12.87
2018-11-04T19:12:45.355Z,13.07
2018-11-04T19:15:14.652Z,12.17
2018-11-04T19:17:43.732Z,12.70
2018-11-04T19:20:14.026Z,12.37
2018-11-04T19:22:43.145Z,12.37
2018-11-04T19:25:13.345Z,12.40
2018-11-04T19:27:43.312Z,12.13
2018-11-04T19:30:13.699Z,12.83
2018-11-04T19:32:43.429Z,15.23
2018-11-04T19:35:16.244Z,18.43
2018-11-04T19:37:45.495Z,19.47
2018-11-04T19:40:16.523Z,17.87
2018-11-04T19:42:45.632Z,13.40
2018-11-04T19:45:14.722Z,13.17
2018-11-04T19:47:44.126Z,13.03
2018-11-04T19:50:14.386Z,12.70
2018-11-04T19:52:43.617Z,11.40
2018-11-04T19:55:13.295Z,11.73
2018-11-04T19:57:42.389Z,12.13
2018-11-04T20:00:12.335Z,12.83
2018-11-04T20:02:41.426Z,13.70
2018-11-04T20:05:11.554Z,13.07
2018-11-04T20:07:40.755Z,13.20
2018-11-04T20:10:12.263Z,12.03
2018-11-04T20:12:47.207Z,12.27
2018-11-04T20:15:16.514Z,11.43
2018-11-04T20:17:46.536Z,12.87
2018-11-04T20:20:19.254Z,12.43
2018-11-04T20:22:48.674Z,11.53
2018-11-04T20:25:23.155Z,12.20
2018-11-04T20:27:52.327Z,12.67
2018-11-04T20:30:21.474Z,11.77
2018-11-04T20:32:56.245Z,13.03
2018-11-04T20:35:25.464Z,12.13
2018-11-04T20:37:54.614Z,12.67
2018-11-04T20:40:29.454Z,12.37
2018-11-04T20:42:58.629Z,12.70
2018-11-04T20:45:27.924Z,12.87
2018-11-04T20:48:02.520Z,13.63
2018-11-04T20:50:37.116Z,12.60
2018-11-04T20:53:07.086Z,12.13
2018-11-04T20:55:41.607Z,12.60
2018-11-04T20:58:11.016Z,13.03
2018-11-04T21:00:40.537Z,12.60
2018-11-04T21:03:09.715Z,11.93
2018-11-04T21:05:39.434Z,12.00
2018-11-04T21:08:08.931Z,12.50
2018-11-04T21:10:38.446Z,12.87
2018-11-04T21:13:07.719Z,12.20
2018-11-04T21:15:37.990Z,12.63
2018-11-04T21:18:07.458Z,12.40
2018-11-04T21:20:36.698Z,12.53
2018-11-04T21:23:07.040Z,12.63
2018-11-04T21:25:36.685Z,12.27
2018-11-04T21:28:06.236Z,12.27
2018-11-04T21:30:35.676Z,12.73
2018-11-04T21:33:05.896Z,12.77
2018-11-04T21:35:35.175Z,11.97
2018-11-04T21:38:04.796Z,12.20
2018-11-04T21:40:34.883Z,12.83
2018-11-04T21:43:04.268Z,13.17
2018-11-04T21:45:33.857Z,13.07
2018-11-04T21:48:04.988Z,12.37
2018-11-04T21:50:34.385Z,13.03
2018-11-04T21:53:03.898Z,13.37
2018-11-04T21:55:35.165Z,12.37
2018-11-04T21:58:04.509Z,12.63
2018-11-04T22:00:33.640Z,13.07
2018-11-04T22:03:03.135Z,13.00
2018-11-04T22:05:32.297Z,12.97
2018-11-04T22:08:03.147Z,13.50
2018-11-04T22:10:33.007Z,13.50
2018-11-04T22:13:03.558Z,13.33
2018-11-04T22:15:32.791Z,13.03
2018-11-04T22:18:01.866Z,13.97
2018-11-04T22:20:30.931Z,14.03
2018-11-04T22:23:00.149Z,12.53
2018-11-04T22:25:29.357Z,13.37
2018-11-04T22:27:58.461Z,13.37
2018-11-04T22:30:27.691Z,13.27
2018-11-04T22:32:57.500Z,11.83
2018-11-04T22:35:27.826Z,12.33
2018-11-04T22:37:58.385Z,14.50
2018-11-04T22:40:28.674Z,13.30
2018-11-04T22:42:57.775Z,13.93
2018-11-04T22:45:28.007Z,14.33
2018-11-04T22:47:57.209Z,13.90
2018-11-04T22:50:33.393Z,14.07
2018-11-04T22:53:02.517Z,13.40
2018-11-04T22:55:32.315Z,13.33
2018-11-04T22:58:05.228Z,14.20
2018-11-04T23:00:40.944Z,13.70
2018-11-04T23:03:10.636Z,14.17
2018-11-04T23:05:40.705Z,14.47
2018-11-04T23:08:10.715Z,14.13
2018-11-04T23:10:43.305Z,13.50
2018-11-04T23:13:15.105Z,15.03
2018-11-04T23:15:45.184Z,14.97
2018-11-04T23:18:14.483Z,14.13
2018-11-04T23:20:43.641Z,13.67
2018-11-04T23:23:12.862Z,13.40
2018-11-04T23:25:44.450Z,13.63
2018-11-04T23:28:13.747Z,14.30
2018-11-04T23:30:43.183Z,13.73
2018-11-04T23:33:13.071Z,15.27
2018-11-04T23:35:43.432Z,14.47
2018-11-04T23:38:12.666Z,15.23
2018-11-04T23:40:44.212Z,14.53
2018-11-04T23:43:13.395Z,15.00
2018-11-04T23:45:42.551Z,14.53
2018-11-04T23:48:13.236Z,14.77
2018-11-04T23:50:42.632Z,14.73
2018-11-04T23:53:11.774Z,14.13
2018-11-04T23:55:41.074Z,14.87
2018-11-04T23:58:10.936Z,15.13
